Time;durP1;ratioP1;P1;durP2;ratioP2;P2;SDS_P1;SDS_P2;PMS_P1;PMS_P2;Temp;Humidity;BMP_temperature;BMP_pressure;BME280_temperature;BME280_humidity;BME280_pressure;Samples;Min_cycle;Max_cycle;Signal;HPM_P1;HPM_P2
2022/02/27 00:00:40;;;;;;;7.38;2.90;;;2.90;93.20;;;;;;4952909;28;20138;-79
2022/02/27 06:01:37;;;;;;;12.43;5.13;;;1.60;99.90;;;;;;5429499;23;20043;-79
2022/02/27 06:04:04;;;;;;;11.65;4.85;;;1.60;99.90;;;;;;4978535;28;20107;-80
2022/02/27 06:06:31;;;;;;;12.15;5.03;;;1.60;99.90;;;;;;4972356;28;20129;-79
2022/02/27 06:08:59;;;;;;;11.73;4.93;;;1.60;99.90;;;;;;4966009;28;20126;-76
2022/02/27 06:11:26;;;;;;;11.80;4.93;;;1.50;99.90;;;;;;4964975;29;20075;-78
2022/02/27 06:13:53;;;;;;;12.98;4.85;;;1.50;99.90;;;;;;4976710;28;20110;-75
2022/02/27 06:16:21;;;;;;;11.60;4.60;;;1.50;99.90;;;;;;4989006;28;20134;-74
2022/02/27 06:18:49;;;;;;;10.32;4.57;;;1.50;99.90;;;;;;4986647;28;20125;-75
2022/02/27 06:21:16;;;;;;;10.93;4.45;;;1.50;99.90;;;;;;4983327;28;20141;-78
2022/02/27 06:23:43;;;;;;;10.20;4.90;;;1.50;99.90;;;;;;4968465;28;20130;-77
2022/02/27 06:26:11;;;;;;;10.43;4.57;;;1.50;99.90;;;;;;4987810;28;20081;-78
2022/02/27 06:28:38;;;;;;;12.65;4.90;;;1.50;99.90;;;;;;4983703;28;20465;-77
2022/02/27 06:31:05;;;;;;;11.23;4.55;;;1.60;99.90;;;;;;4969639;28;20078;-79
2022/02/27 06:33:32;;;;;;;10.95;4.57;;;1.60;99.90;;;;;;4969530;28;20074;-82
2022/02/27 06:36:01;;;;;;;10.60;5.15;;;1.60;99.90;;;;;;4971654;28;20055;-83
2022/02/27 06:38:28;;;;;;;12.05;4.70;;;1.60;99.90;;;;;;4988919;28;20111;-83
2022/02/27 06:40:56;;;;;;;10.32;5.00;;;1.60;99.90;;;;;;4979865;28;20059;-81
2022/02/27 06:43:26;;;;;;;8.82;4.47;;;1.60;99.90;;;;;;4976232;28;20078;-82
2022/02/27 06:45:55;;;;;;;8.77;4.38;;;1.60;99.90;;;;;;4988949;28;20075;-83
2022/02/27 06:48:24;;;;;;;11.55;5.50;;;1.60;99.90;;;;;;4979461;28;20051;-85
2022/02/27 06:50:51;;;;;;;9.35;4.55;;;1.60;99.90;;;;;;4968825;29;20110;-82
2022/02/27 06:53:20;;;;;;;11.85;4.75;;;1.60;99.90;;;;;;4965697;28;20082;-83
2022/02/27 06:55:49;;;;;;;13.20;5.30;;;1.60;99.90;;;;;;4973587;28;20126;-77
2022/02/27 06:58:16;;;;;;;11.80;4.82;;;1.60;99.90;;;;;;4987558;28;20078;-78
2022/02/27 07:00:43;;;;;;;11.65;5.20;;;1.60;99.90;;;;;;4976022;28;20071;-80
2022/02/27 07:03:11;;;;;;;11.35;5.00;;;1.60;99.90;;;;;;4979026;28;20106;-79
2022/02/27 07:05:38;;;;;;;10.85;4.75;;;1.60;99.90;;;;;;4973461;28;20044;-78
2022/02/27 07:08:06;;;;;;;11.70;5.57;;;1.60;99.90;;;;;;4965402;29;20099;-74
2022/02/27 07:10:43;;;;;;;10.02;4.70;;;1.60;99.90;;;;;;4974489;28;20122;-82
2022/02/27 07:13:10;;;;;;;12.00;4.57;;;1.70;99.90;;;;;;4983309;28;20105;-77
2022/02/27 07:15:39;;;;;;;12.60;4.90;;;1.70;99.90;;;;;;4977796;28;20068;-81
2022/02/27 07:18:06;;;;;;;11.02;5.05;;;1.70;99.90;;;;;;4977887;28;20049;-82
2022/02/27 07:20:34;;;;;;;12.77;5.32;;;1.70;99.90;;;;;;4976395;28;20082;-82
2022/02/27 07:23:04;;;;;;;11.15;4.90;;;1.80;99.90;;;;;;4966717;29;20047;-81
2022/02/27 07:25:32;;;;;;;9.40;4.85;;;1.80;99.90;;;;;;4968364;29;20054;-85
2022/02/27 07:28:02;;;;;;;10.70;5.40;;;1.90;99.90;;;;;;4977760;28;20133;-79
2022/02/27 07:30:33;;;;;;;11.90;5.10;;;1.90;99.90;;;;;;4966955;28;20141;-75
2022/02/27 07:33:00;;;;;;;12.93;5.88;;;2.00;99.90;;;;;;4967783;29;20116;-75
2022/02/27 07:35:29;;;;;;;12.25;5.90;;;2.00;99.90;;;;;;4968674;28;20082;-78
2022/02/27 07:38:00;;;;;;;10.38;5.72;;;2.10;99.90;;;;;;4975860;28;20130;-82
2022/02/27 07:40:27;;;;;;;12.18;5.90;;;2.10;99.90;;;;;;4970596;28;20047;-84
2022/02/27 07:42:56;;;;;;;11.35;5.57;;;2.20;99.90;;;;;;4971537;28;20130;-82
2022/02/27 07:45:24;;;;;;;11.55;6.03;;;2.20;99.90;;;;;;4968451;28;20078;-80
2022/02/27 07:47:54;;;;;;;12.70;6.82;;;2.30;99.90;;;;;;4963220;29;20122;-80
2022/02/27 07:50:21;;;;;;;12.43;5.93;;;2.30;99.90;;;;;;4963413;28;20051;-81
2022/02/27 07:52:49;;;;;;;13.80;6.15;;;2.40;99.90;;;;;;4961333;28;20110;-82
2022/02/27 07:55:19;;;;;;;11.68;6.13;;;2.40;99.90;;;;;;4964944;28;20452;-80
2022/02/27 07:57:49;;;;;;;10.68;5.53;;;2.50;99.90;;;;;;4961455;28;20051;-78
2022/02/27 08:00:18;;;;;;;15.23;6.35;;;2.50;99.90;;;;;;4980269;28;20082;-78
2022/02/27 08:02:49;;;;;;;10.23;6.07;;;2.60;99.90;;;;;;4972928;28;20488;-80
2022/02/27 08:05:16;;;;;;;13.55;6.22;;;2.70;99.90;;;;;;4962521;28;20043;-75
2022/02/27 08:07:44;;;;;;;12.00;6.07;;;2.70;99.90;;;;;;4969167;28;20047;-82
2022/02/27 08:10:11;;;;;;;11.32;5.70;;;2.80;99.90;;;;;;4963236;28;20126;-77
2022/02/27 08:12:42;;;;;;;13.77;6.72;;;2.90;99.90;;;;;;4973734;28;20051;-78
2022/02/27 08:15:12;;;;;;;13.13;6.53;;;2.90;99.90;;;;;;4969752;28;20053;-81
2022/02/27 08:17:40;;;;;;;10.73;5.85;;;2.90;99.90;;;;;;4967721;28;20187;-80
2022/02/27 08:20:12;;;;;;;10.00;5.47;;;3.00;99.90;;;;;;4975658;28;20078;-83
2022/02/27 08:22:40;;;;;;;10.73;5.07;;;3.10;99.90;;;;;;4971233;28;20133;-81
2022/02/27 08:25:09;;;;;;;11.00;5.20;;;3.20;99.90;;;;;;4958982;28;20047;-81
2022/02/27 08:27:37;;;;;;;10.45;5.07;;;3.20;99.60;;;;;;4960000;28;20047;-79
2022/02/27 08:30:05;;;;;;;9.02;4.45;;;3.30;99.50;;;;;;4975803;28;20130;-81
2022/02/27 08:32:32;;;;;;;11.52;3.83;;;3.40;99.00;;;;;;4968325;28;20122;-80
2022/02/27 08:35:00;;;;;;;8.23;3.75;;;3.50;98.40;;;;;;4974484;28;20047;-82
2022/02/27 08:37:29;;;;;;;9.73;3.90;;;3.50;97.80;;;;;;4973767;28;20051;-80
2022/02/27 08:39:56;;;;;;;7.85;3.45;;;3.60;97.50;;;;;;4962573;28;20078;-78
2022/02/27 08:42:26;;;;;;;9.77;3.90;;;3.70;97.40;;;;;;4958102;28;20043;-79
2022/02/27 08:44:53;;;;;;;7.63;3.50;;;3.80;96.80;;;;;;4966500;28;20119;-82
2022/02/27 08:47:21;;;;;;;8.50;3.63;;;3.80;96.60;;;;;;4956816;28;20568;-77
2022/02/27 08:49:48;;;;;;;10.43;3.70;;;3.90;96.40;;;;;;4961602;28;20043;-81
2022/02/27 08:52:15;;;;;;;7.70;3.85;;;4.00;96.30;;;;;;4959609;28;20047;-81
2022/02/27 08:54:46;;;;;;;7.13;3.40;;;4.10;95.70;;;;;;4957663;28;20134;-78
2022/02/27 08:57:13;;;;;;;9.52;3.80;;;4.10;95.60;;;;;;4958887;28;20106;-81
2022/02/27 08:59:40;;;;;;;7.32;3.55;;;4.20;95.00;;;;;;4969468;28;20047;-80
2022/02/27 09:02:08;;;;;;;6.82;3.38;;;4.30;94.80;;;;;;4944044;28;20055;-80
2022/02/27 09:04:35;;;;;;;8.30;4.10;;;4.30;94.30;;;;;;4952001;29;20051;-79
2022/02/27 09:07:04;;;;;;;9.00;3.63;;;4.40;94.20;;;;;;4949664;29;20419;-78
2022/02/27 09:09:31;;;;;;;7.55;3.78;;;4.40;93.80;;;;;;4944080;29;20074;-78
2022/02/27 09:11:59;;;;;;;9.05;4.22;;;4.50;93.80;;;;;;4937205;29;20126;-78
2022/02/27 09:14:27;;;;;;;8.98;3.83;;;4.50;93.60;;;;;;4938421;29;20050;-79
2022/02/27 09:16:54;;;;;;;6.80;3.38;;;4.60;93.70;;;;;;4938390;29;20134;-77
2022/02/27 09:19:21;;;;;;;7.78;3.60;;;4.60;93.30;;;;;;4937997;29;20481;-76
2022/02/27 09:21:48;;;;;;;6.72;3.60;;;4.70;93.20;;;;;;4943429;29;20054;-80
2022/02/27 09:24:15;;;;;;;6.57;3.30;;;4.70;93.30;;;;;;4948801;29;20122;-78
2022/02/27 09:26:43;;;;;;;7.97;3.40;;;4.80;93.40;;;;;;4954874;29;20054;-79
2022/02/27 09:29:11;;;;;;;9.90;3.80;;;4.80;93.30;;;;;;4949408;29;20048;-80
2022/02/27 09:31:39;;;;;;;7.82;4.20;;;4.90;92.60;;;;;;4944079;29;20143;-77
2022/02/27 09:34:07;;;;;;;7.47;3.75;;;4.90;91.80;;;;;;4945465;29;20047;-78
2022/02/27 09:36:34;;;;;;;6.07;3.45;;;4.90;91.90;;;;;;4958592;29;20507;-77
2022/02/27 09:39:01;;;;;;;7.25;3.60;;;5.00;92.30;;;;;;4960510;29;20050;-80
2022/02/27 09:41:28;;;;;;;7.00;3.70;;;5.00;91.40;;;;;;4959165;29;20409;-76
2022/02/27 09:43:59;;;;;;;7.25;3.50;;;5.00;90.90;;;;;;4959487;29;20051;-79
2022/02/27 09:46:29;;;;;;;8.23;3.80;;;5.10;91.30;;;;;;4946004;29;20492;-76
2022/02/27 09:48:57;;;;;;;7.63;3.40;;;5.10;91.00;;;;;;4959529;29;20401;-78
2022/02/27 09:51:24;;;;;;;7.80;3.72;;;5.20;91.30;;;;;;4959258;29;20050;-78
2022/02/27 09:53:52;;;;;;;7.30;3.67;;;5.20;91.30;;;;;;4959116;29;20118;-79
2022/02/27 09:56:20;;;;;;;7.65;4.00;;;5.30;91.30;;;;;;4942866;28;20128;-76
2022/02/27 09:58:47;;;;;;;7.93;3.42;;;5.40;90.60;;;;;;4955307;28;20057;-76
2022/02/27 10:01:15;;;;;;;8.60;3.75;;;5.40;90.20;;;;;;4964717;28;20496;-78
2022/02/27 10:03:44;;;;;;;9.15;3.53;;;5.50;90.10;;;;;;4977024;28;20051;-75
2022/02/27 10:06:13;;;;;;;7.68;3.55;;;5.50;89.30;;;;;;4978880;28;20081;-79
2022/02/27 10:08:43;;;;;;;7.68;3.10;;;5.60;88.20;;;;;;4977558;28;20134;-76
2022/02/27 10:11:14;;;;;;;6.15;2.92;;;5.60;87.20;;;;;;4968443;28;20051;-78
2022/02/27 10:13:44;;;;;;;6.43;2.88;;;5.70;85.60;;;;;;4971584;28;20116;-88
2022/02/27 10:16:13;;;;;;;7.18;3.05;;;5.70;83.20;;;;;;4976050;28;20106;-87
2022/02/27 10:18:56;;;;;;;5.80;2.78;;;5.80;80.80;;;;;;4983671;28;20137;-81
2022/02/27 10:21:26;;;;;;;5.78;2.80;;;5.80;79.70;;;;;;4978530;28;20098;-85
2022/02/27 10:23:58;;;;;;;5.25;2.50;;;5.90;78.70;;;;;;4978280;28;20502;-80
2022/02/27 10:26:28;;;;;;;4.32;2.20;;;6.00;77.70;;;;;;4977469;28;20043;-80
2022/02/27 10:29:10;;;;;;;5.28;2.13;;;6.10;76.40;;;;;;4972790;28;20578;-81
2022/02/27 10:31:39;;;;;;;5.93;2.83;;;6.20;76.00;;;;;;4961385;28;20126;-79
2022/02/27 10:34:21;;;;;;;5.40;2.53;;;6.20;73.30;;;;;;4961611;28;20129;-78
2022/02/27 10:36:59;;;;;;;5.70;2.80;;;6.20;71.30;;;;;;4977489;28;20049;-78
2022/02/27 10:39:33;;;;;;;6.80;3.10;;;6.20;70.10;;;;;;4961625;28;20047;-81
2022/02/27 10:42:12;;;;;;;6.25;2.70;;;6.20;70.60;;;;;;4977467;28;20057;-79
2022/02/27 10:44:41;;;;;;;6.10;3.00;;;6.20;70.50;;;;;;4971338;28;20543;-78
2022/02/27 10:47:17;;;;;;;6.93;3.20;;;6.20;70.90;;;;;;4957389;29;20051;-78
2022/02/27 10:49:47;;;;;;;8.30;3.20;;;6.20;71.40;;;;;;4959065;28;20110;-80
2022/02/27 10:52:19;;;;;;;5.53;3.00;;;6.20;70.30;;;;;;4959832;28;20050;-76
2022/02/27 10:54:49;;;;;;;5.72;2.95;;;6.20;70.20;;;;;;4969670;28;20046;-77
2022/02/27 10:57:34;;;;;;;6.93;3.47;;;6.20;70.10;;;;;;4973488;28;20070;-79
2022/02/27 11:00:24;;;;;;;7.18;3.30;;;6.30;69.70;;;;;;4973131;28;20126;-78
2022/02/27 11:02:53;;;;;;;6.97;3.35;;;6.30;69.60;;;;;;4970629;28;20647;-80
2022/02/27 11:05:23;;;;;;;6.13;3.30;;;6.30;68.80;;;;;;4971794;28;20157;-79
2022/02/27 11:07:55;;;;;;;7.03;3.10;;;6.30;68.90;;;;;;4960418;28;20051;-77
2022/02/27 11:10:24;;;;;;;7.57;3.28;;;6.30;69.20;;;;;;4972097;28;20057;-77
2022/02/27 11:12:52;;;;;;;9.05;3.53;;;6.40;69.50;;;;;;4966511;28;20067;-76
2022/02/27 11:15:22;;;;;;;7.68;3.78;;;6.40;69.50;;;;;;4973831;28;20055;-79
2022/02/27 11:17:50;;;;;;;7.10;3.47;;;6.40;69.00;;;;;;4974241;28;20081;-79
2022/02/27 11:20:22;;;;;;;6.22;3.50;;;6.40;69.30;;;;;;4954432;29;20142;-79
2022/02/27 11:22:50;;;;;;;6.88;3.95;;;6.40;68.70;;;;;;4959471;28;20058;-77
2022/02/27 11:25:18;;;;;;;6.13;3.25;;;6.40;68.40;;;;;;4968935;28;20054;-78
2022/02/27 11:27:49;;;;;;;6.15;3.25;;;6.40;68.70;;;;;;4973803;28;20509;-76
2022/02/27 11:30:21;;;;;;;5.63;3.28;;;6.50;69.40;;;;;;4973528;28;20574;-80
2022/02/27 11:32:52;;;;;;;7.07;3.22;;;6.60;70.40;;;;;;4967397;28;20149;-79
2022/02/27 11:35:41;;;;;;;6.32;3.33;;;6.70;71.10;;;;;;4956257;28;20087;-80
2022/02/27 11:38:13;;;;;;;9.98;3.92;;;6.80;70.40;;;;;;4966119;28;20055;-77
2022/02/27 11:40:50;;;;;;;6.28;3.70;;;6.80;69.90;;;;;;4953989;28;20516;-80
2022/02/27 11:43:20;;;;;;;7.68;3.47;;;6.90;70.10;;;;;;4963718;28;20130;-80
2022/02/27 11:45:58;;;;;;;6.72;3.40;;;6.90;68.90;;;;;;4968032;28;20046;-77
2022/02/27 11:49:02;;;;;;;5.88;3.45;;;7.00;69.20;;;;;;4971002;28;20109;-78
2022/02/27 11:52:01;;;;;;;6.40;3.53;;;7.10;69.60;;;;;;4966730;28;20064;-78
2022/02/27 11:54:38;;;;;;;6.78;3.38;;;7.10;68.80;;;;;;4960429;28;20408;-75
2022/02/27 11:57:10;;;;;;;7.43;3.67;;;7.10;70.40;;;;;;4961661;28;20046;-80
2022/02/27 12:00:04;;;;;;;7.97;3.80;;;7.40;72.40;;;;;;4955335;28;20489;-77
2022/02/27 12:02:38;;;;;;;7.35;3.40;;;7.50;68.40;;;;;;4970813;28;20058;-78
2022/02/27 12:05:08;;;;;;;6.78;3.28;;;7.60;66.70;;;;;;4967690;28;20523;-81
2022/02/27 12:08:10;;;;;;;7.30;2.90;;;7.60;65.00;;;;;;4972632;28;20492;-81
2022/02/27 12:10:44;;;;;;;5.93;2.58;;;7.80;65.70;;;;;;4972843;28;20149;-78
2022/02/27 12:13:25;;;;;;;6.15;2.88;;;7.80;65.40;;;;;;4954903;28;20133;-79
2022/02/27 12:16:07;;;;;;;7.60;3.13;;;8.00;65.40;;;;;;4961006;28;20075;-78
2022/02/27 12:18:51;;;;;;;5.50;2.85;;;8.10;63.70;;;;;;4968555;28;20073;-76
2022/02/27 12:21:21;;;;;;;6.20;3.08;;;8.30;65.50;;;;;;4967517;28;20043;-77
2022/02/27 12:23:51;;;;;;;7.47;3.60;;;8.60;66.40;;;;;;4971049;28;20448;-78
2022/02/27 12:26:48;;;;;;;7.05;3.80;;;8.90;65.60;;;;;;4972522;28;20051;-80
2022/02/27 12:29:35;;;;;;;5.63;3.20;;;9.20;63.70;;;;;;4971252;28;20046;-78
2022/02/27 12:32:25;;;;;;;6.93;3.45;;;9.30;59.90;;;;;;4973633;28;20054;-74
2022/02/27 12:34:55;;;;;;;6.95;2.97;;;9.30;58.80;;;;;;4971734;28;20049;-77
2022/02/27 12:37:23;;;;;;;7.05;3.47;;;9.30;59.30;;;;;;4965147;28;20065;-75
2022/02/27 12:39:54;;;;;;;4.85;2.78;;;9.40;58.80;;;;;;4954170;28;20054;-76
2022/02/27 12:42:25;;;;;;;6.30;3.17;;;9.40;57.70;;;;;;4957355;28;20047;-75
2022/02/27 12:44:54;;;;;;;8.25;3.10;;;9.50;56.30;;;;;;4956443;29;20043;-75
2022/02/27 12:47:25;;;;;;;6.85;3.20;;;9.50;56.50;;;;;;4955351;29;20116;-75
2022/02/27 12:52:39;;;;;;;5.70;2.92;;;9.60;57.10;;;;;;4955861;29;20130;-75
2022/02/27 12:55:12;;;;;;;7.55;3.65;;;9.70;56.60;;;;;;4968561;28;20122;-75
2022/02/27 12:57:44;;;;;;;6.57;3.40;;;9.80;54.90;;;;;;4971723;28;20134;-75
2022/02/27 13:00:14;;;;;;;6.50;3.58;;;9.90;55.90;;;;;;4955990;29;20047;-74
2022/02/27 13:02:41;;;;;;;5.35;2.97;;;9.90;56.20;;;;;;4955793;29;20501;-74
2022/02/27 13:05:12;;;;;;;6.15;3.13;;;9.90;55.10;;;;;;4969738;28;20138;-74
2022/02/27 13:07:41;;;;;;;7.05;3.10;;;10.00;52.40;;;;;;4984319;28;20051;-77
2022/02/27 13:10:16;;;;;;;6.55;2.90;;;10.10;52.40;;;;;;4992285;28;20042;-76
2022/02/27 13:12:42;;;;;;;;;;;10.10;52.10;;;;;;4987424;28;20055;-78
2022/02/27 13:15:10;;;;;;;6.65;2.70;;;10.20;52.70;;;;;;4972888;28;20017;-77
2022/02/27 13:17:38;;;;;;;5.57;2.63;;;10.20;52.30;;;;;;4957203;28;20071;-75
2022/02/27 13:20:11;;;;;;;6.15;2.55;;;10.30;52.30;;;;;;4955342;29;20043;-77
2022/02/27 13:22:40;;;;;;;4.88;2.63;;;10.40;51.20;;;;;;4955155;29;20055;-80
2022/02/27 13:25:12;;;;;;;5.93;2.53;;;10.40;51.60;;;;;;4955131;28;20043;-74
2022/02/27 13:27:44;;;;;;;5.53;2.75;;;10.50;50.60;;;;;;4971488;28;20093;-75
2022/02/27 13:30:13;;;;;;;7.25;3.25;;;10.80;49.80;;;;;;4973889;28;20053;-76
2022/02/27 13:32:43;;;;;;;6.38;2.83;;;11.00;49.50;;;;;;4954793;29;20075;-77
2022/02/27 13:35:15;;;;;;;5.25;2.70;;;11.20;49.20;;;;;;4955446;29;20055;-77
2022/02/27 13:37:52;;;;;;;5.00;2.65;;;11.30;49.90;;;;;;4959309;28;20058;-79
2022/02/27 13:40:23;;;;;;;6.70;2.83;;;11.50;49.80;;;;;;4973383;28;20101;-80
2022/02/27 13:42:52;;;;;;;5.57;2.90;;;11.90;48.90;;;;;;4974592;28;20086;-80
2022/02/27 13:45:30;;;;;;;5.90;2.78;;;12.00;49.00;;;;;;4974240;28;20496;-81
2022/02/27 13:47:58;;;;;;;5.18;2.80;;;12.20;49.60;;;;;;4972455;28;20061;-79
2022/02/27 13:50:27;;;;;;;6.15;2.47;;;12.60;49.30;;;;;;4974001;28;20126;-79
2022/02/27 13:52:58;;;;;;;6.07;3.10;;;12.90;48.70;;;;;;4965471;28;20054;-77
2022/02/27 13:55:30;;;;;;;5.47;2.70;;;13.20;48.40;;;;;;4955667;29;20485;-77
2022/02/27 13:58:08;;;;;;;5.85;2.75;;;13.60;47.70;;;;;;4955401;28;20078;-80
2022/02/27 14:00:36;;;;;;;6.28;3.10;;;;;;;;;;4955320;29;20043;-75
2022/02/27 14:03:09;;;;;;;5.78;2.78;;;14.70;47.10;;;;;;4954670;29;20138;-78
2022/02/27 14:05:36;;;;;;;5.80;3.25;;;15.70;47.00;;;;;;4967674;28;20096;-78
2022/02/27 14:08:07;;;;;;;5.35;2.78;;;17.00;43.30;;;;;;4974489;28;20042;-79
2022/02/27 14:10:36;;;;;;;5.82;3.05;;;18.50;40.90;;;;;;4957461;28;20079;-77
2022/02/27 14:13:09;;;;;;;4.93;2.70;;;20.30;38.80;;;;;;4965025;28;20057;-79
2022/02/27 14:15:39;;;;;;;5.53;2.38;;;22.30;36.00;;;;;;4970837;28;20130;-78
2022/02/27 14:18:23;;;;;;;4.35;2.30;;;;;;;;;;4954527;29;20051;-79
2022/02/27 14:20:52;;;;;;;4.97;2.42;;;;;;;;;;4957893;28;20044;-79
2022/02/27 14:23:26;;;;;;;5.60;2.50;;;;;;;;;;4958555;29;20055;-80
2022/02/27 14:25:55;;;;;;;4.65;2.45;;;;;;;;;;4960324;28;20055;-76
2022/02/27 14:28:23;;;;;;;5.85;2.58;;;;;;;;;;4958141;29;20086;-80
2022/02/27 14:30:50;;;;;;;3.78;2.17;;;;;;;;;;4961415;28;20082;-80
2022/02/27 14:33:19;;;;;;;4.03;2.22;;;;;;;;;;4963427;28;20501;-79
2022/02/27 14:35:47;;;;;;;4.47;2.22;;;;;;;;;;4955773;29;20108;-79
2022/02/27 14:38:15;;;;;;;4.25;2.40;;;;;;;;;;4974022;28;20493;-78
2022/02/27 14:40:47;;;;;;;4.22;2.03;;;;;;;;;;4975210;28;20150;-80
2022/02/27 14:43:17;;;;;;;4.75;2.38;;;;;;;;;;4974061;28;20400;-78
2022/02/27 14:45:44;;;;;;;5.22;3.25;;;;;;;;;;4974754;28;20049;-78
2022/02/27 14:48:12;;;;;;;5.10;2.03;;;;;;;;;;4974391;28;20161;-78
2022/02/27 14:50:39;;;;;;;4.25;2.08;;;;;;;;;;4974416;28;20066;-78
2022/02/27 14:53:07;;;;;;;6.72;2.30;;;;;;;;;;4974248;28;20134;-77
2022/02/27 14:55:34;;;;;;;4.10;2.10;;;;;;;;;;4956990;28;20142;-78
2022/02/27 14:58:02;;;;;;;3.97;2.10;;;;;;;;;;4955772;29;20061;-79
2022/02/27 15:00:31;;;;;;;3.67;2.08;;;;;;;;;;4955596;29;20051;-81
2022/02/27 15:03:00;;;;;;;4.40;2.42;;;;;;;;;;4955691;29;20154;-79
2022/02/27 15:05:28;;;;;;;4.65;2.20;;;;;;;;;;4962725;28;20051;-77
2022/02/27 15:07:55;;;;;;;4.00;2.40;;;;;;;;;;4955504;28;20055;-78
2022/02/27 15:10:23;;;;;;;3.45;1.92;;;;;;;;;;4955932;28;20791;-76
2022/02/27 15:12:50;;;;;;;3.97;2.00;;;;;;;;;;4973501;28;20053;-81
2022/02/27 15:15:18;;;;;;;3.92;2.03;;;;;;;;;;4977166;28;20055;-78
2022/02/27 15:17:46;;;;;;;4.00;2.20;;;;;;;;;;4984434;28;20138;-81
2022/02/27 15:20:14;;;;;;;3.90;2.00;;;;;;;;;;4959290;28;20061;-81
2022/02/27 15:22:41;;;;;;;3.47;1.88;;;;;;;;;;4955387;29;20058;-79
2022/02/27 15:25:09;;;;;;;4.55;2.00;;;;;;;;;;4956280;29;20055;-74
2022/02/27 15:27:37;;;;;;;6.18;2.60;;;;;;;;;;4958775;29;20071;-77
2022/02/27 15:30:06;;;;;;;5.43;2.50;;;;;;;;;;4958345;28;20500;-76
2022/02/27 15:32:34;;;;;;;4.10;2.10;;;;;;;;;;4958793;28;20106;-74
2022/02/27 15:35:03;;;;;;;4.28;2.08;;;;;;;;;;4973974;28;20058;-78
2022/02/27 15:37:32;;;;;;;3.55;2.10;;;;;;;;;;4974911;28;20081;-79
2022/02/27 15:40:00;;;;;;;3.97;2.20;;;;;;;;;;4963675;28;20505;-74
2022/02/27 15:42:27;;;;;;;3.40;2.22;;;;;;;;;;4973424;28;20456;-80
2022/02/27 15:44:55;;;;;;;4.10;2.10;;;;;;;;;;4973446;28;20656;-80
2022/02/27 15:47:22;;;;;;;3.42;2.08;;;;;;;;;;4968231;28;20078;-79
2022/02/27 15:49:51;;;;;;;3.90;2.13;;;;;;;;;;4960530;28;20047;-75
2022/02/27 15:52:20;;;;;;;4.63;2.47;;;;;;;;;;4960863;28;20452;-74
2022/02/27 15:54:47;;;;;;;3.70;2.08;;;;;;;;;;4971820;28;20142;-76
2022/02/27 15:57:15;;;;;;;3.88;2.30;;;;;;;;;;4973523;28;20471;-75
2022/02/27 15:59:42;;;;;;;4.07;2.30;;;;;;;;;;4953981;28;20054;-76
2022/02/27 16:02:10;;;;;;;4.88;2.50;;;;;;;;;;4956088;28;20055;-76
2022/02/27 16:04:38;;;;;;;4.28;2.40;;;;;;;;;;4962893;28;20058;-75
2022/02/27 16:07:06;;;;;;;4.88;2.70;;;;;;;;;;4974173;28;20584;-78
2022/02/27 16:09:35;;;;;;;4.00;2.40;;;;;;;;;;4963337;28;20054;-75
2022/02/27 16:12:06;;;;;;;5.13;3.45;;;;;;;;;;4953268;29;20062;-78
2022/02/27 16:14:33;;;;;;;5.15;2.75;;;;;;;;;;4965899;28;20047;-77
2022/02/27 16:17:01;;;;;;;5.75;3.45;;;;;;;;;;4954138;28;20047;-77
2022/02/27 16:19:29;;;;;;;5.55;3.40;;;;;;;;;;4953773;28;20051;-76
2022/02/27 16:21:57;;;;;;;5.45;3.40;;;;;;;;;;4954662;29;20050;-75
2022/02/27 16:24:24;;;;;;;4.82;3.03;;;;;;;;;;4957073;28;20051;-75
2022/02/27 16:26:53;;;;;;;5.22;3.10;;;;;;;;;;4959070;28;20047;-76
2022/02/27 16:29:20;;;;;;;5.95;3.13;;;;;;;;;;4972796;28;20133;-75
2022/02/27 16:31:48;;;;;;;5.68;3.00;;;;;;;;;;4972491;28;20134;-74
2022/02/27 16:34:15;;;;;;;5.18;2.92;;;;;;;;;;4965636;28;20051;-77
2022/02/27 16:36:42;;;;;;;6.72;3.30;;;;;;;;;;4953433;29;20149;-73
2022/02/27 16:39:10;;;;;;;5.70;3.50;;;;;;;;;;4953441;29;20055;-75
2022/02/27 16:41:37;;;;;;;5.40;3.35;;;;;;;;;;4954344;28;20460;-80
2022/02/27 16:44:07;;;;;;;5.28;3.20;;;;;;;;;;4961841;28;20154;-78
2022/02/27 16:46:34;;;;;;;5.90;3.22;;;;;;;;;;4975322;28;20426;-77
2022/02/27 16:49:01;;;;;;;5.25;3.20;;;;;;;;;;4979169;28;20050;-76
2022/02/27 16:51:29;;;;;;;6.05;3.42;;;;;;;;;;4981948;28;20047;-76
2022/02/27 16:53:56;;;;;;;6.25;3.55;;;;;;;;;;4992176;28;20081;-74
2022/02/27 16:56:23;;;;;;;5.68;3.67;;;18.30;31.10;;;;;;4972723;28;20129;-78
2022/02/27 16:58:51;;;;;;;6.10;3.90;;;17.40;31.70;;;;;;4964588;28;20055;-76
2022/02/27 17:01:19;;;;;;;6.10;3.85;;;16.40;32.60;;;;;;4952912;28;20063;-76
2022/02/27 17:03:47;;;;;;;6.22;3.70;;;15.40;33.50;;;;;;4956812;28;20149;-76
2022/02/27 17:06:14;;;;;;;7.80;4.00;;;;;;;;;;4961087;28;20047;-81
2022/02/27 17:08:42;;;;;;;7.85;3.90;;;;;;;;;;4960510;28;20162;-78
2022/02/27 17:11:12;;;;;;;8.43;4.28;;;;;;;;;;4966846;28;20464;-78
2022/02/27 17:13:39;;;;;;;7.38;4.03;;;12.90;36.90;;;;;;4972332;28;20145;-79
2022/02/27 17:16:06;;;;;;;7.45;3.90;;;12.30;37.80;;;;;;4963581;28;20047;-80
2022/02/27 17:18:34;;;;;;;7.55;4.10;;;11.40;38.90;;;;;;4952009;28;20058;-77
2022/02/27 17:21:02;;;;;;;6.85;4.00;;;11.40;39.50;;;;;;4967396;28;20046;-79
2022/02/27 17:23:30;;;;;;;6.50;3.70;;;11.00;40.20;;;;;;4958201;28;20050;-79
2022/02/27 17:25:57;;;;;;;7.10;4.28;;;10.60;40.90;;;;;;4966347;28;20053;-79
2022/02/27 17:28:25;;;;;;;8.27;5.07;;;10.20;42.00;;;;;;4967661;28;20074;-79
2022/02/27 17:30:53;;;;;;;8.07;4.90;;;9.90;42.70;;;;;;4956063;28;20138;-77
2022/02/27 17:33:21;;;;;;;8.07;4.82;;;9.60;43.30;;;;;;4965096;28;20167;-79
2022/02/27 17:35:53;;;;;;;7.53;4.15;;;9.30;44.20;;;;;;4965958;28;20186;-80
2022/02/27 17:38:20;;;;;;;6.80;4.13;;;9.00;44.50;;;;;;4971351;28;20058;-79
2022/02/27 17:40:47;;;;;;;8.88;4.70;;;8.80;45.40;;;;;;4962888;28;20497;-81
2022/02/27 17:43:15;;;;;;;8.93;4.68;;;8.60;45.60;;;;;;4970747;28;20496;-79
2022/02/27 17:45:42;;;;;;;6.82;3.97;;;8.40;46.10;;;;;;4970393;28;20137;-78
2022/02/27 17:48:10;;;;;;;6.82;3.97;;;8.30;46.50;;;;;;4966440;28;20581;-76
2022/02/27 17:50:37;;;;;;;8.52;4.38;;;8.20;46.70;;;;;;4969008;28;20053;-78
2022/02/27 17:53:05;;;;;;;8.85;4.60;;;8.20;47.20;;;;;;4958052;28;20048;-81
2022/02/27 17:55:34;;;;;;;7.45;4.30;;;8.10;47.30;;;;;;4972308;28;20054;-82
2022/02/27 17:58:02;;;;;;;6.72;4.00;;;8.10;47.40;;;;;;4975705;28;20051;-79
2022/02/27 18:00:29;;;;;;;7.80;4.30;;;8.00;47.60;;;;;;4975722;28;20055;-80
2022/02/27 18:02:56;;;;;;;7.03;3.92;;;7.90;47.70;;;;;;4973829;28;20467;-79
2022/02/27 18:05:23;;;;;;;8.88;4.45;;;7.80;48.10;;;;;;4956921;28;20051;-79
2022/02/27 18:07:50;;;;;;;8.75;4.75;;;7.70;48.30;;;;;;4955710;29;20043;-79
2022/02/27 18:10:19;;;;;;;7.70;4.32;;;7.70;48.80;;;;;;4958019;28;20057;-76
2022/02/27 18:12:46;;;;;;;9.63;4.82;;;7.60;48.80;;;;;;4968345;28;20051;-78
2022/02/27 18:15:16;;;;;;;7.43;4.25;;;7.60;49.10;;;;;;4957474;28;20423;-77
2022/02/27 18:17:43;;;;;;;6.75;4.13;;;7.50;49.30;;;;;;4955516;29;20059;-80
2022/02/27 18:20:11;;;;;;;7.43;4.05;;;7.40;49.40;;;;;;4955798;29;20051;-79
2022/02/27 18:22:39;;;;;;;8.57;4.50;;;7.40;49.60;;;;;;4955904;29;20051;-81
2022/02/27 18:25:08;;;;;;;8.00;4.03;;;7.40;49.90;;;;;;4960410;28;20418;-80
2022/02/27 18:27:37;;;;;;;7.72;4.43;;;7.30;49.90;;;;;;4975289;28;20054;-79
2022/02/27 18:30:05;;;;;;;8.00;4.22;;;7.20;50.00;;;;;;4971780;28;20047;-79
2022/02/27 18:32:32;;;;;;;9.98;5.00;;;7.20;50.20;;;;;;4971761;28;20083;-79
2022/02/27 18:34:59;;;;;;;9.48;4.65;;;7.20;50.40;;;;;;4962202;28;20065;-79
2022/02/27 18:37:27;;;;;;;8.48;4.57;;;7.10;50.60;;;;;;4964925;28;20053;-80
2022/02/27 18:39:54;;;;;;;9.20;4.55;;;7.00;50.80;;;;;;4971174;28;20412;-77
2022/02/27 18:42:21;;;;;;;8.48;4.78;;;6.90;51.00;;;;;;4973333;28;20055;-82
2022/02/27 18:44:49;;;;;;;7.45;4.28;;;6.90;51.10;;;;;;4964598;28;20053;-80
2022/02/27 18:47:16;;;;;;;9.77;4.57;;;6.80;51.40;;;;;;4973986;28;20047;-74
2022/02/27 18:49:43;;;;;;;7.47;3.90;;;6.70;51.40;;;;;;4973965;28;20522;-86
2022/02/27 18:52:11;;;;;;;7.85;4.20;;;6.70;55.20;;;;;;4991939;28;20057;-82
2022/02/27 18:54:38;;;;;;;7.10;3.85;;;6.70;56.00;;;;;;4991262;28;20143;-86
2022/02/27 18:57:05;;;;;;;7.68;4.30;;;6.60;56.90;;;;;;4995449;28;20067;-84
2022/02/27 18:59:33;;;;;;;9.25;4.35;;;6.50;56.70;;;;;;4976060;28;20051;-81
2022/02/27 19:02:01;;;;;;;8.07;4.35;;;6.50;57.00;;;;;;4971474;28;20065;-82
2022/02/27 19:04:28;;;;;;;10.18;4.90;;;6.50;57.40;;;;;;4963149;28;20063;-80
2022/02/27 19:06:56;;;;;;;9.30;4.90;;;6.40;57.70;;;;;;4953912;28;20051;-79
2022/02/27 19:09:23;;;;;;;8.30;4.20;;;6.40;57.90;;;;;;4970056;28;20047;-80
2022/02/27 19:11:50;;;;;;;9.10;4.10;;;6.40;58.10;;;;;;4953561;29;20053;-80
2022/02/27 19:14:18;;;;;;;7.75;4.07;;;6.40;58.30;;;;;;4957282;28;20043;-82
2022/02/27 19:16:45;;;;;;;10.32;4.50;;;6.40;58.50;;;;;;4951408;29;20054;-86
2022/02/27 19:19:14;;;;;;;7.88;4.40;;;6.30;58.50;;;;;;4966024;29;20047;-86
2022/02/27 19:21:42;;;;;;;8.15;4.53;;;6.30;58.70;;;;;;4965162;28;20051;-83
2022/02/27 19:24:09;;;;;;;7.55;4.03;;;6.30;58.90;;;;;;4955832;28;20047;-80
2022/02/27 19:26:37;;;;;;;7.60;3.85;;;6.20;59.20;;;;;;4955736;28;20055;-79
2022/02/27 19:29:05;;;;;;;8.27;4.40;;;6.20;60.00;;;;;;4954816;29;20130;-79